Time;durP1;ratioP1;P1;durP2;ratioP2;P2;SDS_P1;SDS_P2;PMS_P1;PMS_P2;Temp;Humidity;BMP_temperature;BMP_pressure;BME280_temperature;BME280_humidity;BME280_pressure;Samples;Min_cycle;Max_cycle;Signal;HPM_P1;HPM_P2
2022/03/25 00:02:04;;;;;;;69.80;35.88;;;8.90;99.90;;;;;;4952165;28;20058;-64
2022/03/25 00:04:30;;;;;;;61.45;35.33;;;8.90;99.90;;;;;;4961929;28;20495;-63
2022/03/25 00:06:55;;;;;;;71.75;36.55;;;8.80;99.90;;;;;;4952864;28;20054;-63
2022/03/25 00:09:21;;;;;;;62.10;34.45;;;8.90;99.90;;;;;;4950674;28;20050;-63
2022/03/25 00:11:46;;;;;;;62.78;32.75;;;8.80;99.90;;;;;;4951835;28;20047;-63
2022/03/25 00:14:14;;;;;;;62.60;33.67;;;8.80;99.90;;;;;;4952708;28;20475;-63
2022/03/25 00:16:39;;;;;;;65.13;32.42;;;8.80;99.90;;;;;;4960043;28;20055;-63
2022/03/25 00:19:05;;;;;;;59.00;30.92;;;8.80;99.90;;;;;;4970783;28;20055;-63
2022/03/25 00:21:30;;;;;;;56.72;32.03;;;8.80;99.90;;;;;;4968390;28;20509;-64
2022/03/25 00:23:56;;;;;;;63.85;34.22;;;8.80;99.90;;;;;;4951797;28;20051;-63
2022/03/25 00:26:21;;;;;;;64.75;34.53;;;8.70;99.90;;;;;;4958768;28;20446;-63
2022/03/25 00:28:47;;;;;;;72.65;34.20;;;8.70;99.90;;;;;;4971189;28;20098;-64
2022/03/25 00:31:13;;;;;;;66.38;32.22;;;8.70;99.90;;;;;;4956415;28;20074;-63
2022/03/25 00:33:42;;;;;;;64.28;30.55;;;8.70;99.90;;;;;;4972307;28;20051;-63
2022/03/25 00:36:10;;;;;;;66.72;35.88;;;8.70;99.90;;;;;;4989838;28;20101;-63
2022/03/25 00:38:35;;;;;;;65.15;35.00;;;8.60;99.90;;;;;;4968689;28;20139;-63
2022/03/25 00:41:01;;;;;;;63.05;32.72;;;8.60;99.90;;;;;;4985835;28;20129;-63
2022/03/25 00:43:27;;;;;;;69.70;38.15;;;8.50;99.90;;;;;;4964732;28;20094;-63
2022/03/25 00:45:52;;;;;;;72.20;36.45;;;8.50;99.90;;;;;;4951290;28;20051;-63
2022/03/25 00:48:18;;;;;;;71.40;35.20;;;8.50;99.90;;;;;;4951546;28;20106;-63
2022/03/25 00:50:43;;;;;;;60.70;33.25;;;8.60;99.90;;;;;;4957746;28;20047;-63
2022/03/25 00:53:10;;;;;;;67.82;33.55;;;8.50;99.90;;;;;;4973634;28;20511;-63
2022/03/25 00:55:37;;;;;;;64.38;32.88;;;8.50;99.90;;;;;;4955972;28;20153;-63
2022/03/25 00:58:03;;;;;;;63.47;32.05;;;8.50;99.90;;;;;;4953964;28;20085;-63
2022/03/25 01:00:29;;;;;;;72.80;35.63;;;8.50;99.90;;;;;;4953375;28;20082;-63
2022/03/25 01:02:54;;;;;;;54.40;29.38;;;8.50;99.90;;;;;;4964590;28;20085;-63
2022/03/25 01:05:20;;;;;;;62.25;30.23;;;8.40;99.90;;;;;;4975829;28;20043;-64
2022/03/25 01:07:46;;;;;;;53.72;27.45;;;8.40;99.90;;;;;;4954452;28;20043;-63
2022/03/25 01:10:13;;;;;;;58.08;28.63;;;8.30;99.90;;;;;;4956512;28;20410;-64
2022/03/25 01:12:38;;;;;;;57.08;29.10;;;8.40;99.90;;;;;;4973554;28;20126;-63
2022/03/25 01:15:05;;;;;;;58.65;28.95;;;8.30;99.90;;;;;;4973488;28;20066;-63
2022/03/25 01:17:30;;;;;;;52.72;26.70;;;8.30;99.90;;;;;;4959142;28;20043;-63
2022/03/25 01:19:56;;;;;;;54.33;27.42;;;8.30;99.90;;;;;;4960948;28;20399;-63
2022/03/25 01:22:22;;;;;;;51.33;26.20;;;8.40;99.90;;;;;;4972926;28;20080;-63
2022/03/25 01:24:48;;;;;;;52.28;26.23;;;8.30;99.90;;;;;;4963315;28;20475;-63
2022/03/25 01:27:14;;;;;;;60.58;27.38;;;8.30;99.90;;;;;;4954336;28;20513;-63
2022/03/25 01:29:40;;;;;;;51.80;27.45;;;8.30;99.90;;;;;;4953591;28;20047;-63
2022/03/25 01:32:07;;;;;;;47.17;25.45;;;8.30;99.90;;;;;;4955666;28;20070;-63
2022/03/25 01:34:33;;;;;;;53.10;25.20;;;8.30;99.90;;;;;;4962097;28;20074;-63
2022/03/25 01:36:59;;;;;;;50.85;25.02;;;8.30;99.90;;;;;;4973278;28;20086;-63
2022/03/25 01:39:24;;;;;;;53.90;26.63;;;8.30;99.90;;;;;;4972678;28;20043;-63
2022/03/25 01:41:50;;;;;;;56.40;29.60;;;8.30;99.90;;;;;;4956119;28;20047;-64
2022/03/25 01:44:27;;;;;;;54.45;26.33;;;8.10;99.90;;;;;;4953955;28;20066;-63
2022/03/25 01:46:54;;;;;;;49.45;26.23;;;8.10;99.90;;;;;;4967237;28;20041;-63
2022/03/25 01:49:20;;;;;;;51.67;28.42;;;8.10;99.90;;;;;;4968217;28;20434;-63
2022/03/25 01:51:50;;;;;;;49.88;25.77;;;8.10;99.90;;;;;;4973728;28;20046;-63
2022/03/25 01:54:24;;;;;;;57.38;27.80;;;8.10;99.90;;;;;;4972984;28;20031;-64
2022/03/25 01:57:02;;;;;;;45.58;23.55;;;8.00;99.90;;;;;;4970436;28;20047;-63
2022/03/25 01:59:29;;;;;;;52.42;27.15;;;8.10;99.90;;;;;;4954053;28;20043;-63
2022/03/25 02:01:55;;;;;;;51.20;26.98;;;8.00;99.90;;;;;;4953856;28;20051;-63
2022/03/25 02:04:21;;;;;;;50.95;25.60;;;8.10;99.90;;;;;;4989616;28;20053;-64
2022/03/25 02:06:47;;;;;;;50.85;26.23;;;8.10;99.90;;;;;;4986973;28;20046;-63
2022/03/25 02:09:13;;;;;;;47.67;25.63;;;8.20;99.90;;;;;;4953330;28;20051;-63
2022/03/25 02:11:39;;;;;;;48.13;25.13;;;8.10;99.90;;;;;;4952762;28;20487;-64
2022/03/25 02:14:05;;;;;;;54.60;26.42;;;8.10;99.90;;;;;;4953902;28;20043;-63
2022/03/25 02:16:38;;;;;;;55.28;27.23;;;8.10;99.90;;;;;;4960094;28;20046;-63
2022/03/25 02:19:04;;;;;;;48.90;25.60;;;8.10;99.90;;;;;;4972409;28;20402;-63
2022/03/25 02:21:32;;;;;;;54.95;27.45;;;8.10;99.90;;;;;;4972173;28;20047;-63
2022/03/25 02:23:58;;;;;;;48.33;24.60;;;8.10;99.90;;;;;;4972993;28;20708;-63
2022/03/25 02:26:24;;;;;;;52.20;26.05;;;8.00;99.90;;;;;;4968529;28;20136;-63
2022/03/25 02:28:50;;;;;;;50.65;26.60;;;8.00;99.90;;;;;;4972634;28;20074;-63
2022/03/25 02:31:17;;;;;;;54.70;26.48;;;8.00;99.90;;;;;;4971541;28;20055;-63
2022/03/25 02:33:43;;;;;;;53.33;29.75;;;8.00;99.90;;;;;;4961279;28;20051;-63
2022/03/25 02:36:09;;;;;;;53.97;28.65;;;7.90;99.90;;;;;;4953230;28;20505;-63
2022/03/25 02:38:36;;;;;;;49.80;27.90;;;7.90;99.90;;;;;;4952280;28;20058;-63
2022/03/25 02:41:02;;;;;;;57.00;29.02;;;7.90;99.90;;;;;;4963591;28;20047;-63
2022/03/25 02:43:28;;;;;;;50.35;28.63;;;7.80;99.90;;;;;;4952951;28;20043;-63
2022/03/25 02:45:53;;;;;;;53.85;28.73;;;7.70;99.90;;;;;;4963043;28;20086;-63
2022/03/25 02:48:19;;;;;;;55.55;30.02;;;7.70;99.90;;;;;;4972026;28;20077;-63
2022/03/25 02:50:46;;;;;;;56.50;28.85;;;7.80;99.90;;;;;;4972482;28;20454;-63
2022/03/25 02:53:13;;;;;;;52.88;30.75;;;7.70;99.90;;;;;;4956885;28;20059;-63
2022/03/25 02:55:40;;;;;;;50.28;24.80;;;7.60;99.90;;;;;;4982479;28;20101;-63
2022/03/25 02:58:06;;;;;;;52.45;26.63;;;7.60;99.90;;;;;;4991829;28;20406;-63
2022/03/25 03:00:32;;;;;;;46.30;24.40;;;7.50;99.90;;;;;;4984694;28;20047;-63
2022/03/25 03:03:01;;;;;;;51.10;24.83;;;7.40;99.90;;;;;;4972146;28;20407;-63
2022/03/25 03:05:30;;;;;;;45.50;25.30;;;7.40;99.90;;;;;;4957568;28;20075;-63
2022/03/25 03:07:57;;;;;;;56.05;27.98;;;7.40;99.90;;;;;;4952321;28;20074;-63
2022/03/25 03:10:24;;;;;;;52.60;27.10;;;7.30;99.90;;;;;;4952362;28;20058;-63
2022/03/25 03:12:50;;;;;;;54.00;27.63;;;7.40;99.90;;;;;;4952724;28;20814;-63
2022/03/25 03:15:17;;;;;;;62.03;30.58;;;7.40;99.90;;;;;;4950387;28;20499;-63
2022/03/25 03:17:47;;;;;;;55.88;28.80;;;7.40;99.90;;;;;;4952379;28;20503;-63
2022/03/25 03:20:14;;;;;;;60.78;27.88;;;7.40;99.90;;;;;;4960809;28;20043;-63
2022/03/25 03:22:40;;;;;;;56.97;29.00;;;7.50;99.90;;;;;;4952806;28;20149;-63
2022/03/25 03:25:06;;;;;;;57.58;28.27;;;7.40;99.90;;;;;;4967464;28;20486;-63
2022/03/25 03:27:32;;;;;;;59.13;29.95;;;7.40;99.90;;;;;;4970510;28;20074;-63
2022/03/25 03:29:58;;;;;;;59.97;30.05;;;7.40;99.90;;;;;;4971719;28;20101;-63
2022/03/25 03:32:28;;;;;;;64.13;31.35;;;7.40;99.90;;;;;;4971194;28;20047;-63
2022/03/25 03:34:54;;;;;;;58.60;30.67;;;7.40;99.90;;;;;;4972118;28;20054;-63
2022/03/25 03:37:21;;;;;;;55.70;28.50;;;7.40;99.90;;;;;;4952518;28;20157;-63
2022/03/25 03:39:47;;;;;;;61.63;30.92;;;7.20;99.90;;;;;;4960974;28;20042;-63
2022/03/25 03:42:12;;;;;;;57.92;29.52;;;7.20;99.90;;;;;;4975746;28;20057;-63
2022/03/25 03:44:38;;;;;;;66.72;32.15;;;7.00;99.90;;;;;;4956407;28;20039;-63
2022/03/25 03:47:06;;;;;;;62.65;31.90;;;7.00;99.90;;;;;;4951311;28;20047;-63
2022/03/25 03:49:33;;;;;;;58.17;30.15;;;7.00;99.90;;;;;;4950061;28;20054;-63
2022/03/25 03:51:59;;;;;;;62.38;33.55;;;7.10;99.90;;;;;;4952258;28;20491;-63
2022/03/25 03:54:24;;;;;;;63.80;34.65;;;7.10;99.90;;;;;;4960090;28;20034;-63
2022/03/25 03:56:50;;;;;;;61.92;32.30;;;7.10;99.90;;;;;;4973255;28;20056;-63
2022/03/25 03:59:15;;;;;;;65.95;33.42;;;7.20;99.90;;;;;;4971638;28;20077;-63
2022/03/25 04:01:41;;;;;;;63.67;33.35;;;7.10;99.90;;;;;;4956727;28;20121;-63
2022/03/25 04:04:07;;;;;;;63.40;33.60;;;7.10;99.90;;;;;;4952026;28;20051;-63
2022/03/25 04:06:33;;;;;;;66.72;34.85;;;7.10;99.90;;;;;;4952111;28;20170;-63
2022/03/25 04:08:59;;;;;;;57.25;31.67;;;7.00;99.90;;;;;;4952593;28;20035;-63
2022/03/25 04:11:25;;;;;;;59.90;29.85;;;7.00;99.90;;;;;;4953043;28;20044;-63
2022/03/25 04:13:51;;;;;;;65.05;32.72;;;7.00;99.90;;;;;;4952774;28;20047;-63
2022/03/25 04:16:16;;;;;;;64.30;31.13;;;7.10;99.90;;;;;;4951902;28;20058;-63
2022/03/25 04:18:42;;;;;;;59.70;29.63;;;7.10;99.90;;;;;;4961568;28;20046;-63
2022/03/25 04:21:08;;;;;;;60.72;30.55;;;7.00;99.90;;;;;;4957018;28;20051;-63
2022/03/25 04:23:33;;;;;;;52.90;28.42;;;6.90;99.90;;;;;;4952315;28;20384;-63
2022/03/25 04:25:59;;;;;;;57.70;29.70;;;6.90;99.90;;;;;;4991052;28;20042;-63
2022/03/25 04:28:24;;;;;;;60.30;31.52;;;6.90;99.90;;;;;;4977543;28;20453;-64
2022/03/25 04:30:50;;;;;;;57.30;29.67;;;6.90;99.90;;;;;;4974089;28;20047;-63
2022/03/25 04:33:16;;;;;;;65.05;30.02;;;6.90;99.90;;;;;;4973245;28;20051;-63
2022/03/25 04:35:41;;;;;;;57.08;30.67;;;6.90;99.90;;;;;;4974426;28;20197;-63
2022/03/25 04:38:07;;;;;;;59.42;31.42;;;6.90;99.90;;;;;;4956439;28;20054;-64
2022/03/25 04:40:34;;;;;;;59.75;29.75;;;6.90;99.90;;;;;;4967126;28;20035;-63
2022/03/25 04:43:00;;;;;;;61.70;31.85;;;6.90;99.90;;;;;;4955448;28;20516;-64
2022/03/25 04:45:27;;;;;;;56.95;30.05;;;6.80;99.90;;;;;;4954222;28;20043;-63
2022/03/25 04:47:53;;;;;;;75.38;50.15;;;6.80;99.90;;;;;;4955344;28;20060;-63
2022/03/25 04:50:20;;;;;;;76.28;52.33;;;6.90;99.90;;;;;;4956504;28;20050;-63
2022/03/25 04:52:46;;;;;;;73.10;51.72;;;7.00;99.90;;;;;;4974221;28;20186;-63
2022/03/25 04:55:12;;;;;;;80.65;51.60;;;7.00;99.90;;;;;;4974583;28;20047;-63
2022/03/25 04:57:41;;;;;;;71.07;48.65;;;7.00;99.90;;;;;;4956512;28;20054;-63
2022/03/25 05:00:10;;;;;;;80.10;53.15;;;7.00;99.90;;;;;;4954202;28;20058;-63
2022/03/25 05:02:36;;;;;;;72.78;48.60;;;7.00;99.90;;;;;;4966904;28;20517;-63
2022/03/25 05:05:03;;;;;;;69.82;49.22;;;7.00;99.90;;;;;;4972123;28;20047;-64
2022/03/25 05:07:28;;;;;;;68.20;48.97;;;6.90;99.90;;;;;;4955173;28;20043;-63
2022/03/25 05:09:58;;;;;;;71.85;49.70;;;6.90;99.90;;;;;;4954909;28;20055;-64
2022/03/25 05:12:23;;;;;;;68.65;47.25;;;6.90;99.90;;;;;;4969093;28;20141;-63
2022/03/25 05:14:49;;;;;;;67.85;47.88;;;6.90;99.90;;;;;;4954497;28;20091;-64
2022/03/25 05:17:15;;;;;;;65.82;45.92;;;7.00;99.90;;;;;;4953540;28;20110;-63
2022/03/25 05:19:42;;;;;;;74.63;47.80;;;6.90;99.90;;;;;;4953557;28;20051;-63
2022/03/25 05:22:08;;;;;;;74.07;49.22;;;6.90;99.90;;;;;;4959366;28;20039;-63
2022/03/25 05:24:34;;;;;;;74.82;50.05;;;6.70;99.90;;;;;;4992491;28;20498;-63
2022/03/25 05:26:59;;;;;;;69.97;47.47;;;6.60;99.90;;;;;;4992837;28;20148;-63
2022/03/25 05:29:26;;;;;;;68.70;48.03;;;6.60;99.90;;;;;;4970978;28;20471;-63
2022/03/25 05:31:52;;;;;;;67.82;48.10;;;6.60;99.90;;;;;;4954578;28;20047;-63
2022/03/25 05:34:18;;;;;;;72.32;50.20;;;6.60;99.90;;;;;;4990798;28;20065;-63
2022/03/25 05:36:43;;;;;;;70.88;47.65;;;6.60;99.90;;;;;;4973652;28;20055;-63
2022/03/25 05:39:09;;;;;;;68.82;44.30;;;6.60;99.90;;;;;;4973974;28;20046;-63
2022/03/25 05:41:35;;;;;;;72.82;47.85;;;6.60;99.90;;;;;;4991426;28;20069;-64
2022/03/25 05:44:00;;;;;;;65.90;43.22;;;6.70;99.90;;;;;;4982121;28;20046;-63
2022/03/25 05:46:26;;;;;;;66.63;47.78;;;6.80;99.90;;;;;;4953906;28;20495;-63
2022/03/25 05:48:52;;;;;;;62.78;45.40;;;6.80;99.90;;;;;;4953776;28;20452;-63
2022/03/25 05:51:18;;;;;;;61.55;44.25;;;6.80;99.90;;;;;;4953837;28;20130;-63
2022/03/25 05:53:44;;;;;;;63.67;43.72;;;6.80;99.90;;;;;;4956719;28;20050;-63
2022/03/25 05:56:10;;;;;;;61.80;43.55;;;6.90;99.90;;;;;;4984861;28;20051;-63
2022/03/25 05:58:37;;;;;;;66.07;46.63;;;6.90;99.90;;;;;;4953600;28;20405;-63
2022/03/25 06:01:04;;;;;;;71.70;45.88;;;6.90;99.90;;;;;;4954193;28;20126;-63
2022/03/25 06:03:31;;;;;;;68.25;45.42;;;6.80;99.90;;;;;;4951546;28;20079;-63
2022/03/25 06:05:56;;;;;;;74.25;47.13;;;6.70;99.90;;;;;;4954029;28;20046;-64
2022/03/25 06:08:23;;;;;;;69.28;42.88;;;6.80;99.90;;;;;;4955223;28;20047;-63
2022/03/25 06:10:49;;;;;;;65.65;44.78;;;6.80;99.90;;;;;;4972396;28;20051;-63
2022/03/25 06:13:16;;;;;;;65.57;44.60;;;6.90;99.90;;;;;;4971628;28;20101;-63
2022/03/25 06:15:41;;;;;;;69.32;45.47;;;7.00;99.90;;;;;;4970997;28;20073;-63
2022/03/25 06:18:07;;;;;;;65.05;43.60;;;7.10;99.90;;;;;;4972286;28;20082;-63
2022/03/25 06:20:32;;;;;;;68.45;45.75;;;7.20;99.90;;;;;;4969946;28;20043;-63
2022/03/25 06:22:58;;;;;;;64.38;45.35;;;7.10;99.90;;;;;;4980934;28;20038;-64
2022/03/25 06:25:24;;;;;;;65.35;44.00;;;7.10;99.90;;;;;;4991235;28;20054;-63
2022/03/25 06:27:55;;;;;;;60.80;43.47;;;7.20;99.90;;;;;;4971470;28;20136;-63
2022/03/25 06:30:24;;;;;;;67.55;43.85;;;7.30;99.90;;;;;;4971717;28;20046;-63
2022/03/25 06:32:50;;;;;;;63.88;43.03;;;7.30;99.90;;;;;;4972865;28;20127;-63
2022/03/25 06:35:15;;;;;;;65.47;44.92;;;7.40;99.90;;;;;;4967741;28;20145;-63
2022/03/25 06:37:41;;;;;;;62.55;43.30;;;7.50;99.90;;;;;;4969401;28;20118;-63
2022/03/25 06:40:08;;;;;;;64.93;44.53;;;7.50;99.90;;;;;;4960581;28;20039;-63
2022/03/25 06:42:43;;;;;;;63.75;43.38;;;7.60;99.90;;;;;;4959192;28;20410;-63
2022/03/25 06:45:10;;;;;;;62.17;42.92;;;7.60;99.90;;;;;;4972079;28;20155;-63
2022/03/25 06:47:36;;;;;;;66.15;44.85;;;7.70;99.90;;;;;;4972075;28;20051;-63
2022/03/25 06:50:03;;;;;;;63.28;44.45;;;7.70;99.90;;;;;;4971664;28;20486;-64
2022/03/25 06:52:29;;;;;;;68.85;46.70;;;7.80;99.90;;;;;;4972507;28;20409;-64
2022/03/25 06:54:55;;;;;;;65.10;44.72;;;7.80;99.90;;;;;;4964909;28;20047;-63
2022/03/25 06:57:21;;;;;;;66.30;45.47;;;7.90;99.90;;;;;;4970466;28;20061;-63
2022/03/25 06:59:47;;;;;;;60.25;41.42;;;7.90;99.90;;;;;;4962254;28;20126;-63
2022/03/25 07:02:13;;;;;;;66.55;46.75;;;7.90;99.90;;;;;;4952666;28;20050;-63
2022/03/25 07:04:39;;;;;;;64.57;41.92;;;8.00;99.90;;;;;;4952888;28;20054;-63
2022/03/25 07:07:06;;;;;;;64.70;43.63;;;8.00;99.90;;;;;;4966953;28;20055;-63
2022/03/25 07:09:32;;;;;;;63.15;43.45;;;8.00;99.90;;;;;;4970666;28;20053;-63
2022/03/25 07:11:59;;;;;;;65.78;42.40;;;8.10;99.90;;;;;;4972617;28;20047;-63
2022/03/25 07:14:25;;;;;;;65.82;43.90;;;8.20;99.90;;;;;;4959911;28;20455;-63
2022/03/25 07:16:51;;;;;;;63.63;45.72;;;8.20;99.90;;;;;;4953297;28;20082;-63
2022/03/25 07:19:17;;;;;;;68.78;48.30;;;8.30;99.90;;;;;;4960759;28;20078;-63
2022/03/25 07:21:43;;;;;;;62.90;45.70;;;8.30;99.90;;;;;;4962149;28;20038;-64
2022/03/25 07:24:08;;;;;;;73.30;48.50;;;8.40;99.90;;;;;;4959632;28;20123;-63
2022/03/25 07:26:34;;;;;;;69.20;48.00;;;8.50;99.90;;;;;;4951495;28;20122;-63
2022/03/25 07:28:59;;;;;;;65.25;47.28;;;8.50;99.90;;;;;;4952592;28;20070;-63
2022/03/25 07:31:28;;;;;;;69.35;48.60;;;8.60;99.90;;;;;;4953671;28;20138;-63
2022/03/25 07:33:56;;;;;;;68.65;45.60;;;8.70;99.90;;;;;;4970855;28;20390;-63
2022/03/25 07:36:22;;;;;;;65.00;45.53;;;8.70;99.90;;;;;;4971273;28;20206;-63
2022/03/25 07:38:48;;;;;;;64.13;44.08;;;8.80;99.90;;;;;;4955059;28;20082;-63
2022/03/25 07:41:13;;;;;;;66.30;42.72;;;8.80;99.90;;;;;;4984443;28;20042;-63
2022/03/25 07:43:39;;;;;;;65.07;40.40;;;8.80;99.90;;;;;;4985363;28;20074;-63
2022/03/25 07:46:05;;;;;;;60.47;39.22;;;8.90;99.90;;;;;;4952656;28;20437;-63
2022/03/25 07:48:32;;;;;;;58.17;40.10;;;9.00;99.90;;;;;;4951288;28;20051;-64
2022/03/25 07:50:57;;;;;;;60.83;37.97;;;9.10;99.90;;;;;;4951089;28;20439;-63
2022/03/25 07:53:23;;;;;;;47.83;33.40;;;9.10;99.90;;;;;;4969011;28;20042;-63
2022/03/25 07:55:50;;;;;;;52.28;33.05;;;9.20;99.90;;;;;;4969114;28;20039;-63
2022/03/25 07:58:19;;;;;;;49.05;32.20;;;9.20;99.90;;;;;;4971326;28;20141;-63
2022/03/25 08:00:45;;;;;;;47.97;30.80;;;9.20;99.90;;;;;;4972542;28;20130;-64
2022/03/25 08:03:11;;;;;;;51.85;33.65;;;9.30;99.90;;;;;;4975112;28;20047;-63
2022/03/25 08:05:38;;;;;;;48.92;33.70;;;9.40;99.90;;;;;;4972888;28;20054;-63
2022/03/25 08:08:04;;;;;;;42.17;30.55;;;9.60;99.90;;;;;;4975828;28;20057;-63
2022/03/25 08:10:31;;;;;;;48.80;31.00;;;9.80;99.90;;;;;;4972575;28;20042;-63
2022/03/25 08:12:58;;;;;;;53.60;32.05;;;10.20;99.90;;;;;;4975276;28;20498;-63
2022/03/25 08:15:25;;;;;;;47.17;30.23;;;10.90;99.90;;;;;;4974000;28;20495;-63
2022/03/25 08:17:56;;;;;;;45.80;29.45;;;11.30;99.90;;;;;;4975026;28;20438;-63
2022/03/25 08:20:33;;;;;;;49.28;29.65;;;11.80;99.90;;;;;;4961931;28;20086;-63
2022/03/25 08:22:59;;;;;;;41.55;28.27;;;12.30;99.90;;;;;;4979432;28;20062;-63
2022/03/25 08:28:10;;;;;;;41.88;28.25;;;13.40;99.90;;;;;;4979096;28;20047;-64
2022/03/25 08:30:37;;;;;;;43.65;27.73;;;13.60;99.90;;;;;;4973711;28;20057;-63
2022/03/25 08:33:04;;;;;;;43.65;27.63;;;13.80;99.90;;;;;;4975191;28;20119;-63
2022/03/25 08:35:30;;;;;;;34.90;25.30;;;14.10;99.90;;;;;;4973927;28;20138;-64
2022/03/25 08:37:56;;;;;;;42.60;27.77;;;14.50;99.90;;;;;;4959080;28;20055;-63
2022/03/25 08:40:22;;;;;;;37.53;27.33;;;14.80;99.90;;;;;;4973375;28;20501;-63
2022/03/25 08:42:48;;;;;;;44.67;25.65;;;15.00;99.50;;;;;;4994426;28;20050;-63
2022/03/25 08:45:15;;;;;;;41.28;26.60;;;15.40;98.20;;;;;;4973162;28;20046;-64
2022/03/25 08:47:41;;;;;;;38.00;26.58;;;15.70;98.20;;;;;;4974487;28;20059;-64
2022/03/25 08:50:09;;;;;;;39.38;28.50;;;16.00;97.00;;;;;;4954548;28;20074;-63
2022/03/25 08:52:35;;;;;;;37.70;26.83;;;16.10;96.20;;;;;;4978653;28;20052;-63
2022/03/25 08:55:01;;;;;;;36.90;27.42;;;16.40;96.30;;;;;;4980386;28;20095;-64
2022/03/25 08:57:27;;;;;;;34.03;24.90;;;16.60;95.50;;;;;;4954672;28;20052;-63
2022/03/25 08:59:52;;;;;;;38.40;26.83;;;17.10;94.50;;;;;;4954574;28;20047;-63
2022/03/25 09:02:18;;;;;;;36.28;24.33;;;17.10;94.30;;;;;;4953435;28;20107;-63
2022/03/25 09:04:46;;;;;;;40.42;26.02;;;17.30;93.60;;;;;;4954589;28;20482;-63
2022/03/25 09:07:12;;;;;;;38.47;26.55;;;17.40;92.20;;;;;;4958675;28;20054;-64
2022/03/25 09:09:38;;;;;;;31.92;21.88;;;17.70;92.10;;;;;;4973523;28;20042;-64
2022/03/25 09:12:04;;;;;;;36.78;24.92;;;17.70;92.20;;;;;;4973275;28;20065;-64
2022/03/25 09:14:30;;;;;;;37.15;23.35;;;17.80;91.60;;;;;;4971413;28;20039;-64
2022/03/25 09:16:55;;;;;;;31.98;22.13;;;17.90;91.30;;;;;;4964075;28;20094;-64
2022/03/25 09:19:21;;;;;;;28.10;19.20;;;17.80;90.20;;;;;;4954893;28;20479;-63
2022/03/25 09:21:47;;;;;;;34.50;22.33;;;18.10;90.20;;;;;;4975299;28;20070;-64
2022/03/25 09:24:12;;;;;;;28.02;18.95;;;18.00;89.80;;;;;;4953496;28;20043;-64
2022/03/25 09:26:38;;;;;;;33.50;20.52;;;18.10;87.50;;;;;;4953798;28;20401;-64
2022/03/25 09:29:04;;;;;;;34.00;21.65;;;18.20;86.90;;;;;;4953093;28;20043;-64
2022/03/25 09:31:30;;;;;;;31.80;19.48;;;18.20;86.80;;;;;;4953762;28;20487;-64
2022/03/25 09:35:08;;;;;;;28.75;19.70;;;18.40;86.90;;;;;;4953904;28;20051;-64
2022/03/25 09:36:41;;;;;;;31.48;21.50;;;18.30;84.50;;;;;;4955916;28;20051;-64
2022/03/25 09:39:06;;;;;;;33.97;20.27;;;18.30;84.00;;;;;;4954205;28;20053;-63
2022/03/25 09:41:32;;;;;;;31.80;20.52;;;18.20;84.20;;;;;;4990742;28;20046;-63
2022/03/25 09:43:58;;;;;;;32.50;19.40;;;18.50;83.40;;;;;;4989805;28;20097;-63
2022/03/25 09:46:25;;;;;;;27.85;19.38;;;18.50;83.60;;;;;;4972661;28;20471;-64
2022/03/25 09:48:50;;;;;;;30.65;18.27;;;18.60;83.70;;;;;;4973120;28;20074;-63
2022/03/25 09:51:16;;;;;;;32.67;19.75;;;18.60;81.80;;;;;;4955199;28;20055;-63
2022/03/25 09:53:42;;;;;;;29.50;16.75;;;18.60;82.40;;;;;;4960388;28;20038;-64
2022/03/25 09:56:08;;;;;;;30.17;20.08;;;18.60;81.60;;;;;;4952774;28;20051;-64
2022/03/25 09:58:34;;;;;;;28.90;19.02;;;18.80;81.70;;;;;;4952242;28;20397;-63
2022/03/25 10:00:59;;;;;;;29.10;19.98;;;19.00;81.50;;;;;;4955564;28;20424;-63
2022/03/25 10:03:36;;;;;;;35.35;19.73;;;19.00;81.60;;;;;;4952778;28;20083;-64
2022/03/25 10:06:04;;;;;;;29.92;19.15;;;19.30;79.60;;;;;;4969473;28;20043;-64
2022/03/25 10:08:33;;;;;;;26.13;18.08;;;19.10;80.50;;;;;;4972178;28;20890;-63
2022/03/25 10:11:22;;;;;;;28.77;18.38;;;18.90;79.50;;;;;;4972880;28;20569;-63
2022/03/25 10:13:50;;;;;;;30.02;19.48;;;18.90;79.30;;;;;;4953505;28;20055;-63
2022/03/25 10:16:29;;;;;;;30.80;17.67;;;18.80;80.20;;;;;;4952893;28;20062;-63
2022/03/25 10:18:56;;;;;;;28.20;19.58;;;18.60;78.90;;;;;;4954072;28;20074;-63
2022/03/25 10:21:23;;;;;;;29.75;18.13;;;18.60;76.50;;;;;;4967995;28;20090;-63
2022/03/25 10:23:48;;;;;;;28.23;18.17;;;18.50;79.80;;;;;;4952417;28;20044;-63
2022/03/25 10:26:14;;;;;;;29.08;18.35;;;18.40;80.70;;;;;;4952430;28;20546;-63
2022/03/25 10:28:40;;;;;;;36.28;20.80;;;18.10;80.30;;;;;;4953487;28;20065;-64
2022/03/25 10:31:11;;;;;;;26.75;17.83;;;18.20;78.20;;;;;;4952714;28;20398;-63
2022/03/25 10:33:44;;;;;;;35.67;17.48;;;18.20;79.10;;;;;;4959630;28;20058;-63
2022/03/25 10:36:11;;;;;;;28.05;19.27;;;18.40;78.80;;;;;;4971185;28;20059;-63
2022/03/25 10:39:00;;;;;;;32.30;18.98;;;18.30;78.90;;;;;;4971435;28;20066;-64
2022/03/25 10:41:39;;;;;;;29.60;18.35;;;18.20;79.50;;;;;;4975187;28;20431;-63
2022/03/25 10:44:05;;;;;;;28.65;17.85;;;18.10;80.10;;;;;;4972080;28;20450;-63
2022/03/25 10:46:31;;;;;;;26.50;17.15;;;18.10;79.50;;;;;;4972120;28;20097;-63
2022/03/25 10:48:57;;;;;;;28.65;18.48;;;18.10;78.90;;;;;;4970691;28;20050;-63
2022/03/25 10:51:22;;;;;;;23.23;10.60;;;18.20;77.90;;;;;;4975022;28;20039;-63
2022/03/25 10:53:59;;;;;;;21.08;8.93;;;18.00;76.10;;;;;;4992120;28;20046;-64
2022/03/25 10:56:26;;;;;;;18.73;9.45;;;18.20;77.50;;;;;;4990953;28;20054;-63
2022/03/25 10:58:53;;;;;;;19.13;8.80;;;18.40;78.40;;;;;;4967637;28;20119;-64
2022/03/25 11:01:18;;;;;;;19.05;8.65;;;18.40;76.70;;;;;;4971714;28;20043;-63
2022/03/25 11:03:45;;;;;;;21.20;8.85;;;18.60;76.90;;;;;;4972450;28;20118;-63
2022/03/25 11:06:15;;;;;;;20.38;9.10;;;18.50;77.90;;;;;;4969838;28;20058;-63
2022/03/25 11:08:42;;;;;;;24.63;10.80;;;18.60;76.60;;;;;;4960284;28;20047;-63
2022/03/25 11:11:08;;;;;;;18.27;9.73;;;18.50;75.60;;;;;;4952846;28;20039;-63
2022/03/25 11:13:34;;;;;;;16.77;9.75;;;18.60;75.00;;;;;;4950257;28;20407;-63
2022/03/25 11:16:02;;;;;;;16.88;8.77;;;18.90;75.40;;;;;;4952516;28;20058;-64
2022/03/25 11:18:28;;;;;;;17.30;9.68;;;19.10;76.60;;;;;;4952347;29;20126;-63
2022/03/25 11:20:57;;;;;;;20.45;9.70;;;18.90;72.30;;;;;;4967404;28;20553;-63
2022/03/25 11:23:34;;;;;;;24.88;11.30;;;18.90;75.30;;;;;;4969493;28;20062;-63
2022/03/25 11:26:03;;;;;;;24.35;10.40;;;19.00;74.60;;;;;;4971264;28;20055;-63
2022/03/25 11:28:32;;;;;;;23.33;10.82;;;19.00;75.10;;;;;;4971498;28;20406;-63
2022/03/25 11:31:00;;;;;;;18.73;10.10;;;19.30;75.80;;;;;;4959604;28;20113;-63
2022/03/25 11:33:25;;;;;;;18.15;10.40;;;19.30;73.80;;;;;;4951188;28;20062;-63
2022/03/25 11:36:15;;;;;;;25.38;11.38;;;19.50;72.60;;;;;;4950738;28;20047;-63
2022/03/25 11:38:42;;;;;;;26.13;11.75;;;19.60;74.30;;;;;;4952515;28;20062;-63
2022/03/25 11:41:21;;;;;;;25.88;10.00;;;19.60;74.90;;;;;;4982918;28;20084;-63
2022/03/25 11:44:16;;;;;;;17.13;9.13;;;19.40;72.70;;;;;;4982986;28;20109;-63
2022/03/25 11:47:12;;;;;;;22.25;10.63;;;19.50;73.20;;;;;;4970870;28;20576;-63
2022/03/25 11:49:41;;;;;;;22.08;11.85;;;19.60;72.40;;;;;;4974891;28;20065;-63
2022/03/25 11:52:16;;;;;;;19.52;9.38;;;19.70;71.10;;;;;;4986456;28;20061;-63
2022/03/25 11:54:43;;;;;;;16.90;10.20;;;19.70;71.80;;;;;;4951543;28;20119;-64
2022/03/25 11:57:26;;;;;;;20.40;9.25;;;19.90;71.70;;;;;;4951189;28;20069;-63
2022/03/25 11:59:55;;;;;;;22.45;10.50;;;19.60;69.40;;;;;;4952676;28;20051;-63
2022/03/25 12:02:32;;;;;;;20.40;10.20;;;20.00;72.30;;;;;;4951187;28;20047;-63
2022/03/25 12:04:59;;;;;;;23.52;9.55;;;20.00;69.70;;;;;;4952852;28;20460;-64
2022/03/25 12:07:25;;;;;;;19.33;9.88;;;20.00;69.90;;;;;;4950748;28;20082;-63
2022/03/25 12:09:52;;;;;;;22.02;9.88;;;20.10;69.50;;;;;;4952113;29;20078;-63
2022/03/25 12:12:17;;;;;;;27.05;12.43;;;20.30;71.00;;;;;;4950580;28;20098;-63
2022/03/25 12:15:10;;;;;;;23.67;12.13;;;20.30;71.70;;;;;;4952387;28;20039;-63
2022/03/25 12:17:37;;;;;;;27.77;12.15;;;20.30;69.20;;;;;;4950442;28;20043;-63
2022/03/25 12:20:03;;;;;;;24.25;13.20;;;20.50;69.70;;;;;;4965685;28;20065;-64
2022/03/25 12:22:34;;;;;;;26.13;14.98;;;20.60;69.60;;;;;;4988312;28;20073;-64
2022/03/25 12:25:09;;;;;;;28.27;14.20;;;20.60;69.50;;;;;;4953752;28;20060;-63
2022/03/25 12:27:35;;;;;;;23.88;11.27;;;20.70;69.00;;;;;;4951459;28;20043;-64
2022/03/25 12:30:00;;;;;;;30.13;11.63;;;20.60;68.50;;;;;;4966139;28;20047;-64
2022/03/25 12:32:31;;;;;;;30.65;12.68;;;20.70;67.40;;;;;;4949824;28;20047;-64
2022/03/25 12:35:11;;;;;;;26.38;11.25;;;20.70;65.20;;;;;;4951954;28;20078;-64
2022/03/25 12:38:05;;;;;;;22.65;11.90;;;20.70;67.50;;;;;;4949771;28;20063;-64